sensor_id;sensor_type;location;lat;lon;timestamp;pressure;altitude;pressure_sealevel;temperature;humidity
21203;BME280;10759;51.982;9.232;2023-04-05T00:00:54;101216.25;;;1.19;82.75
21203;BME280;10759;51.982;9.232;2023-04-05T00:03:22;101254.25;;;1.32;83.30
21203;BME280;10759;51.982;9.232;2023-04-05T00:05:51;101248.66;;;1.10;84.45
21203;BME280;10759;51.982;9.232;2023-04-05T00:08:20;101244.41;;;1.20;84.68
21203;BME280;10759;51.982;9.232;2023-04-05T00:10:52;101250.41;;;1.08;84.82
21203;BME280;10759;51.982;9.232;2023-04-05T00:13:20;101251.38;;;1.15;84.28
21203;BME280;10759;51.982;9.232;2023-04-05T00:15:48;101246.72;;;0.98;84.67
21203;BME280;10759;51.982;9.232;2023-04-05T00:18:17;101245.03;;;1.02;84.69
21203;BME280;10759;51.982;9.232;2023-04-05T00:20:50;101224.41;;;0.75;85.27
21203;BME280;10759;51.982;9.232;2023-04-05T00:23:18;101240.38;;;0.85;85.73
21203;BME280;10759;51.982;9.232;2023-04-05T00:25:47;101217.22;;;0.66;86.20
21203;BME280;10759;51.982;9.232;2023-04-05T00:28:15;101215.38;;;0.60;85.46
21203;BME280;10759;51.982;9.232;2023-04-05T00:30:43;101253.56;;;0.84;85.46
21203;BME280;10759;51.982;9.232;2023-04-05T00:33:11;101245.59;;;0.81;84.93
21203;BME280;10759;51.982;9.232;2023-04-05T00:35:41;101256.09;;;0.78;86.10
21203;BME280;10759;51.982;9.232;2023-04-05T00:38:09;101258.06;;;0.90;85.47
21203;BME280;10759;51.982;9.232;2023-04-05T00:40:36;101255.84;;;1.19;84.98
21203;BME280;10759;51.982;9.232;2023-04-05T00:43:05;101257.47;;;1.09;84.89
21203;BME280;10759;51.982;9.232;2023-04-05T00:45:33;101240.63;;;1.02;84.53
21203;BME280;10759;51.982;9.232;2023-04-05T00:48:02;101126.25;;;0.41;84.45
21203;BME280;10759;51.982;9.232;2023-04-05T00:50:30;101239.75;;;1.02;84.42
21203;BME280;10759;51.982;9.232;2023-04-05T00:52:59;101251.34;;;1.12;84.16
21203;BME280;10759;51.982;9.232;2023-04-05T00:55:27;101255.56;;;1.00;83.44
21203;BME280;10759;51.982;9.232;2023-04-05T00:57:55;101231.72;;;0.94;83.71
21203;BME280;10759;51.982;9.232;2023-04-05T01:00:24;101217.53;;;0.88;83.03
21203;BME280;10759;51.982;9.232;2023-04-05T01:02:55;101236.72;;;0.76;83.98
21203;BME280;10759;51.982;9.232;2023-04-05T01:05:34;101228.59;;;0.62;84.55
21203;BME280;10759;51.982;9.232;2023-04-05T01:08:10;101216.09;;;0.50;84.70
21203;BME280;10759;51.982;9.232;2023-04-05T01:10:43;101233.75;;;0.56;85.16
21203;BME280;10759;51.982;9.232;2023-04-05T01:13:15;101228.53;;;0.57;85.54
21203;BME280;10759;51.982;9.232;2023-04-05T01:15:42;101225.84;;;0.54;86.27
21203;BME280;10759;51.982;9.232;2023-04-05T01:18:11;101219.53;;;0.45;86.36
21203;BME280;10759;51.982;9.232;2023-04-05T01:20:44;101224.97;;;0.55;86.68
21203;BME280;10759;51.982;9.232;2023-04-05T01:23:27;101215.13;;;0.45;86.04
21203;BME280;10759;51.982;9.232;2023-04-05T01:26:36;101231.94;;;0.52;86.09
21203;BME280;10759;51.982;9.232;2023-04-05T01:32:21;101065.19;;;-0.41;86.48
21203;BME280;10759;51.982;9.232;2023-04-05T01:34:55;101216.88;;;0.46;86.54
21203;BME280;10759;51.982;9.232;2023-04-05T01:37:29;101215.09;;;0.43;86.66
21203;BME280;10759;51.982;9.232;2023-04-05T01:39:58;101207.00;;;0.33;86.71
21203;BME280;10759;51.982;9.232;2023-04-05T01:42:26;101197.94;;;0.17;87.47
21203;BME280;10759;51.982;9.232;2023-04-05T01:44:56;101064.06;;;-0.54;86.66
21203;BME280;10759;51.982;9.232;2023-04-05T01:47:26;101212.38;;;0.39;87.05
21203;BME280;10759;51.982;9.232;2023-04-05T01:49:54;101178.50;;;0.10;86.67
21203;BME280;10759;51.982;9.232;2023-04-05T01:52:24;101206.81;;;0.22;87.47
21203;BME280;10759;51.982;9.232;2023-04-05T01:54:52;101182.19;;;0.20;87.23
21203;BME280;10759;51.982;9.232;2023-04-05T01:57:20;101209.56;;;0.28;87.80
21203;BME280;10759;51.982;9.232;2023-04-05T01:59:48;101204.25;;;0.27;87.74
21203;BME280;10759;51.982;9.232;2023-04-05T02:02:16;101177.53;;;0.07;87.86
21203;BME280;10759;51.982;9.232;2023-04-05T02:04:45;101145.47;;;-0.19;86.38
21203;BME280;10759;51.982;9.232;2023-04-05T02:07:13;101193.28;;;0.02;87.76
21203;BME280;10759;51.982;9.232;2023-04-05T02:09:41;101196.97;;;0.10;86.89
21203;BME280;10759;51.982;9.232;2023-04-05T02:12:11;101192.31;;;-0.05;87.92
21203;BME280;10759;51.982;9.232;2023-04-05T02:14:39;101197.25;;;0.27;86.74
21203;BME280;10759;51.982;9.232;2023-04-05T02:17:07;101200.84;;;0.34;86.87
21203;BME280;10759;51.982;9.232;2023-04-05T02:19:35;101191.06;;;0.27;86.82
21203;BME280;10759;51.982;9.232;2023-04-05T02:22:08;101196.34;;;0.27;86.19
21203;BME280;10759;51.982;9.232;2023-04-05T02:24:35;101205.16;;;0.27;86.60
21203;BME280;10759;51.982;9.232;2023-04-05T02:27:03;101150.00;;;-0.12;86.46
21203;BME280;10759;51.982;9.232;2023-04-05T02:29:33;101198.06;;;0.25;86.10
21203;BME280;10759;51.982;9.232;2023-04-05T02:32:01;101199.84;;;0.26;85.75
21203;BME280;10759;51.982;9.232;2023-04-05T02:34:29;101203.91;;;0.07;86.13
21203;BME280;10759;51.982;9.232;2023-04-05T02:36:57;101196.75;;;-0.02;86.21
21203;BME280;10759;51.982;9.232;2023-04-05T02:39:26;101198.22;;;-0.16;86.54
21203;BME280;10759;51.982;9.232;2023-04-05T02:41:55;101203.34;;;-0.24;87.97
21203;BME280;10759;51.982;9.232;2023-04-05T02:44:23;101202.56;;;-0.18;87.18
21203;BME280;10759;51.982;9.232;2023-04-05T02:46:52;101200.88;;;-0.15;87.56
21203;BME280;10759;51.982;9.232;2023-04-05T02:49:26;101204.31;;;-0.19;87.93
21203;BME280;10759;51.982;9.232;2023-04-05T02:51:56;101174.03;;;-0.41;87.59
21203;BME280;10759;51.982;9.232;2023-04-05T02:54:25;101199.94;;;-0.18;87.97
21203;BME280;10759;51.982;9.232;2023-04-05T02:56:58;101189.22;;;-0.28;88.08
21203;BME280;10759;51.982;9.232;2023-04-05T02:59:33;101187.56;;;-0.23;88.31
21203;BME280;10759;51.982;9.232;2023-04-05T03:02:03;101180.47;;;-0.27;87.37
21203;BME280;10759;51.982;9.232;2023-04-05T03:04:31;101197.25;;;-0.22;87.02
21203;BME280;10759;51.982;9.232;2023-04-05T03:07:01;101192.81;;;-0.24;86.86
21203;BME280;10759;51.982;9.232;2023-04-05T03:09:34;101179.72;;;-0.19;87.50
21203;BME280;10759;51.982;9.232;2023-04-05T03:12:07;101145.03;;;-0.44;87.30
21203;BME280;10759;51.982;9.232;2023-04-05T03:14:39;101119.94;;;-0.71;87.92
21203;BME280;10759;51.982;9.232;2023-04-05T03:17:11;101183.78;;;-0.37;87.95
21203;BME280;10759;51.982;9.232;2023-04-05T03:19:43;101172.34;;;-0.39;88.88
21203;BME280;10759;51.982;9.232;2023-04-05T03:22:16;101173.38;;;-0.31;87.37
21203;BME280;10759;51.982;9.232;2023-04-05T03:24:46;101168.22;;;-0.25;87.80
21203;BME280;10759;51.982;9.232;2023-04-05T03:27:16;101159.50;;;-0.22;88.16
21203;BME280;10759;51.982;9.232;2023-04-05T03:29:58;101144.19;;;-0.41;88.05
21203;BME280;10759;51.982;9.232;2023-04-05T03:32:27;101133.56;;;-0.46;87.63
21203;BME280;10759;51.982;9.232;2023-04-05T03:35:04;100900.34;;;-1.79;86.58
21203;BME280;10759;51.982;9.232;2023-04-05T03:37:34;101151.44;;;-0.28;86.89
21203;BME280;10759;51.982;9.232;2023-04-05T03:40:08;101161.84;;;-0.36;86.75
21203;BME280;10759;51.982;9.232;2023-04-05T03:42:36;101163.31;;;-0.50;87.83
21203;BME280;10759;51.982;9.232;2023-04-05T03:45:06;101139.06;;;-0.34;87.53
21203;BME280;10759;51.982;9.232;2023-04-05T03:47:34;101140.81;;;-0.33;87.31
21203;BME280;10759;51.982;9.232;2023-04-05T03:50:06;101151.31;;;-0.36;87.99
21203;BME280;10759;51.982;9.232;2023-04-05T03:52:34;101161.09;;;-0.29;87.04
21203;BME280;10759;51.982;9.232;2023-04-05T03:55:04;101154.88;;;-0.34;88.32
21203;BME280;10759;51.982;9.232;2023-04-05T03:57:36;101051.81;;;-0.99;87.79
21203;BME280;10759;51.982;9.232;2023-04-05T04:00:17;101171.16;;;-0.53;88.53
21203;BME280;10759;51.982;9.232;2023-04-05T04:03:01;101165.84;;;-0.56;88.75
21203;BME280;10759;51.982;9.232;2023-04-05T04:05:29;101162.25;;;-0.61;89.18
21203;BME280;10759;51.982;9.232;2023-04-05T04:07:58;101161.03;;;-0.77;88.99
21203;BME280;10759;51.982;9.232;2023-04-05T04:10:26;101174.09;;;-0.82;88.99
21203;BME280;10759;51.982;9.232;2023-04-05T04:12:58;101173.09;;;-0.89;88.85
21203;BME280;10759;51.982;9.232;2023-04-05T04:15:30;101158.59;;;-1.11;89.78
21203;BME280;10759;51.982;9.232;2023-04-05T04:18:16;101179.25;;;-0.88;90.31
21203;BME280;10759;51.982;9.232;2023-04-05T04:21:10;101154.97;;;-1.14;89.52
21203;BME280;10759;51.982;9.232;2023-04-05T04:23:59;101158.69;;;-1.04;89.75
21203;BME280;10759;51.982;9.232;2023-04-05T04:26:56;101178.41;;;-0.85;89.61
21203;BME280;10759;51.982;9.232;2023-04-05T04:29:25;101135.69;;;-1.15;90.08
21203;BME280;10759;51.982;9.232;2023-04-05T04:32:16;101175.72;;;-0.87;89.59
21203;BME280;10759;51.982;9.232;2023-04-05T04:35:14;101167.69;;;-0.95;88.92
21203;BME280;10759;51.982;9.232;2023-04-05T04:38:13;101117.28;;;-1.15;88.61
21203;BME280;10759;51.982;9.232;2023-04-05T04:41:05;101172.31;;;-0.83;88.51
21203;BME280;10759;51.982;9.232;2023-04-05T04:43:42;101177.59;;;-0.83;88.84
21203;BME280;10759;51.982;9.232;2023-04-05T04:46:39;101174.09;;;-0.82;88.21
21203;BME280;10759;51.982;9.232;2023-04-05T04:49:25;101168.00;;;-0.81;87.71
21203;BME280;10759;51.982;9.232;2023-04-05T04:51:53;101050.69;;;-1.53;87.45
21203;BME280;10759;51.982;9.232;2023-04-05T04:54:24;101175.91;;;-0.79;88.07
21203;BME280;10759;51.982;9.232;2023-04-05T04:56:54;101177.59;;;-0.83;88.10
21203;BME280;10759;51.982;9.232;2023-04-05T04:59:22;101154.88;;;-1.19;88.46
21203;BME280;10759;51.982;9.232;2023-04-05T05:01:52;101177.72;;;-1.18;88.31
21203;BME280;10759;51.982;9.232;2023-04-05T05:04:20;101156.28;;;-1.33;88.80
21203;BME280;10759;51.982;9.232;2023-04-05T05:06:49;101183.13;;;-1.10;88.34
21203;BME280;10759;51.982;9.232;2023-04-05T05:09:17;101181.59;;;-1.00;88.93
21203;BME280;10759;51.982;9.232;2023-04-05T05:11:49;101164.88;;;-1.02;88.60
21203;BME280;10759;51.982;9.232;2023-04-05T05:14:17;101174.44;;;-1.06;88.43
21203;BME280;10759;51.982;9.232;2023-04-05T05:16:45;101186.16;;;-0.93;88.95
21203;BME280;10759;51.982;9.232;2023-04-05T05:19:15;101195.09;;;-0.85;88.57
21203;BME280;10759;51.982;9.232;2023-04-05T05:21:47;101194.31;;;-0.81;88.21
21203;BME280;10759;51.982;9.232;2023-04-05T05:24:15;101188.38;;;-0.71;88.36
21203;BME280;10759;51.982;9.232;2023-04-05T05:26:43;101184.88;;;-0.71;87.98
21203;BME280;10759;51.982;9.232;2023-04-05T05:29:11;101194.81;;;-0.56;87.95
21203;BME280;10759;51.982;9.232;2023-04-05T05:31:42;101188.88;;;-0.46;88.33
21203;BME280;10759;51.982;9.232;2023-04-05T05:34:10;101188.03;;;-0.44;88.37
21203;BME280;10759;51.982;9.232;2023-04-05T05:36:45;101191.75;;;-0.32;87.63
21203;BME280;10759;51.982;9.232;2023-04-05T05:39:13;101026.59;;;-1.32;88.17
21203;BME280;10759;51.982;9.232;2023-04-05T05:41:41;101172.34;;;-0.39;87.97
21203;BME280;10759;51.982;9.232;2023-04-05T05:44:11;101194.63;;;-0.22;89.08
21203;BME280;10759;51.982;9.232;2023-04-05T05:46:40;101133.84;;;-0.31;88.18
21203;BME280;10759;51.982;9.232;2023-04-05T05:49:08;101184.81;;;0.20;87.69
21203;BME280;10759;51.982;9.232;2023-04-05T05:51:36;101189.75;;;0.52;87.26
21203;BME280;10759;51.982;9.232;2023-04-05T05:54:05;101176.03;;;0.74;86.43
21203;BME280;10759;51.982;9.232;2023-04-05T05:56:33;101184.22;;;0.94;86.63
21203;BME280;10759;51.982;9.232;2023-04-05T05:59:01;101174.06;;;1.25;85.20
21203;BME280;10759;51.982;9.232;2023-04-05T06:01:29;101174.25;;;1.40;84.11
21203;BME280;10759;51.982;9.232;2023-04-05T06:04:00;101176.38;;;1.70;81.95
21203;BME280;10759;51.982;9.232;2023-04-05T06:06:28;101181.56;;;1.63;81.31
21203;BME280;10759;51.982;9.232;2023-04-05T06:08:56;101181.88;;;1.93;81.12
21203;BME280;10759;51.982;9.232;2023-04-05T06:11:25;101146.63;;;1.91;80.52
21203;BME280;10759;51.982;9.232;2023-04-05T06:13:53;101151.50;;;1.55;81.85
21203;BME280;10759;51.982;9.232;2023-04-05T06:16:21;101126.38;;;1.11;83.70
21203;BME280;10759;51.982;9.232;2023-04-05T06:18:49;101163.78;;;1.48;83.43
21203;BME280;10759;51.982;9.232;2023-04-05T06:21:17;101161.19;;;1.51;83.68
21203;BME280;10759;51.982;9.232;2023-04-05T06:23:45;101165.38;;;1.34;84.87
21203;BME280;10759;51.982;9.232;2023-04-05T06:26:16;101154.88;;;1.38;83.92
21203;BME280;10759;51.982;9.232;2023-04-05T06:28:47;101161.09;;;1.45;84.53
21203;BME280;10759;51.982;9.232;2023-04-05T06:31:15;101163.44;;;1.98;82.60
21203;BME280;10759;51.982;9.232;2023-04-05T06:33:43;101166.38;;;2.33;81.13
21203;BME280;10759;51.982;9.232;2023-04-05T06:36:11;101172.78;;;2.58;79.68
21203;BME280;10759;51.982;9.232;2023-04-05T06:38:39;101170.25;;;2.77;77.96
21203;BME280;10759;51.982;9.232;2023-04-05T06:41:07;101168.88;;;2.17;80.62
21203;BME280;10759;51.982;9.232;2023-04-05T06:43:35;101171.50;;;2.12;80.80
21203;BME280;10759;51.982;9.232;2023-04-05T06:46:04;101167.09;;;2.14;83.70
21203;BME280;10759;51.982;9.232;2023-04-05T06:48:34;101128.13;;;1.93;83.41
21203;BME280;10759;51.982;9.232;2023-04-05T06:51:02;101163.47;;;2.04;82.69
21203;BME280;10759;51.982;9.232;2023-04-05T06:53:31;101166.03;;;1.93;83.02
21203;BME280;10759;51.982;9.232;2023-04-05T06:55:59;101172.25;;;1.99;85.27
21203;BME280;10759;51.982;9.232;2023-04-05T06:58:27;101172.34;;;2.11;83.21
21203;BME280;10759;51.982;9.232;2023-04-05T07:00:55;101168.09;;;2.25;83.06
21203;BME280;10759;51.982;9.232;2023-04-05T07:03:24;101147.00;;;2.36;82.68
21203;BME280;10759;51.982;9.232;2023-04-05T07:05:54;101164.97;;;2.78;82.71
21203;BME280;10759;51.982;9.232;2023-04-05T07:08:22;101118.22;;;2.84;81.55
21203;BME280;10759;51.982;9.232;2023-04-05T07:10:50;101160.78;;;3.23;80.39
21203;BME280;10759;51.982;9.232;2023-04-05T07:13:20;101153.75;;;3.30;78.31
21203;BME280;10759;51.982;9.232;2023-04-05T07:15:48;101120.03;;;2.91;78.23
21203;BME280;10759;51.982;9.232;2023-04-05T07:18:17;101127.13;;;2.99;79.31
21203;BME280;10759;51.982;9.232;2023-04-05T07:20:47;101143.22;;;3.50;78.77
21203;BME280;10759;51.982;9.232;2023-04-05T07:23:15;101146.66;;;3.23;78.66
21203;BME280;10759;51.982;9.232;2023-04-05T07:25:43;101136.06;;;3.20;81.18
21203;BME280;10759;51.982;9.232;2023-04-05T07:28:12;101055.41;;;2.55;76.30
21203;BME280;10759;51.982;9.232;2023-04-05T07:30:39;101059.09;;;2.82;77.51
21203;BME280;10759;51.982;9.232;2023-04-05T07:33:08;101131.78;;;3.73;74.63
21203;BME280;10759;51.982;9.232;2023-04-05T07:35:36;101133.63;;;4.01;75.91
21203;BME280;10759;51.982;9.232;2023-04-05T07:38:05;101111.50;;;3.93;73.42
21203;BME280;10759;51.982;9.232;2023-04-05T07:40:33;101135.41;;;4.28;73.04
21203;BME280;10759;51.982;9.232;2023-04-05T07:43:01;101118.53;;;4.65;72.92
21203;BME280;10759;51.982;9.232;2023-04-05T07:45:29;101135.28;;;4.94;66.93
21203;BME280;10759;51.982;9.232;2023-04-05T07:47:57;101141.41;;;5.13;66.52
21203;BME280;10759;51.982;9.232;2023-04-05T07:50:25;101133.41;;;5.27;67.03
21203;BME280;10759;51.982;9.232;2023-04-05T07:52:53;101129.84;;;5.24;67.51
21203;BME280;10759;51.982;9.232;2023-04-05T07:55:22;101064.34;;;5.20;65.43
21203;BME280;10759;51.982;9.232;2023-04-05T07:57:50;101136.78;;;5.60;63.45
21203;BME280;10759;51.982;9.232;2023-04-05T08:00:18;101141.28;;;5.52;65.64
21203;BME280;10759;51.982;9.232;2023-04-05T08:02:46;101123.50;;;5.57;62.36
21203;BME280;10759;51.982;9.232;2023-04-05T08:05:14;101140.16;;;5.90;59.42
21203;BME280;10759;51.982;9.232;2023-04-05T08:07:42;101139.09;;;6.17;65.46
21203;BME280;10759;51.982;9.232;2023-04-05T08:10:10;101138.13;;;6.30;57.73
21203;BME280;10759;51.982;9.232;2023-04-05T08:12:40;101114.84;;;6.52;55.79
21203;BME280;10759;51.982;9.232;2023-04-05T08:15:08;101135.75;;;6.92;54.12
21203;BME280;10759;51.982;9.232;2023-04-05T08:17:36;101134.81;;;6.95;52.95
21203;BME280;10759;51.982;9.232;2023-04-05T08:20:05;101131.34;;;6.90;53.32
21203;BME280;10759;51.982;9.232;2023-04-05T08:22:33;101063.22;;;6.65;52.01
21203;BME280;10759;51.982;9.232;2023-04-05T08:25:01;101132.69;;;7.24;50.97
21203;BME280;10759;51.982;9.232;2023-04-05T08:27:29;101124.34;;;7.53;48.16
21203;BME280;10759;51.982;9.232;2023-04-05T08:29:58;101125.91;;;7.65;48.17
21203;BME280;10759;51.982;9.232;2023-04-05T08:32:26;101132.91;;;7.76;48.84
21203;BME280;10759;51.982;9.232;2023-04-05T08:34:54;101123.75;;;7.93;46.85
21203;BME280;10759;51.982;9.232;2023-04-05T08:37:22;101126.28;;;8.03;45.41
21203;BME280;10759;51.982;9.232;2023-04-05T08:39:50;101121.69;;;8.12;44.77
21203;BME280;10759;51.982;9.232;2023-04-05T08:42:22;101124.91;;;7.09;46.10
21203;BME280;10759;51.982;9.232;2023-04-05T08:44:53;101116.03;;;7.73;46.02
21203;BME280;10759;51.982;9.232;2023-04-05T08:47:25;101116.34;;;8.11;45.02
21203;BME280;10759;51.982;9.232;2023-04-05T08:49:54;101108.75;;;8.39;46.08
21203;BME280;10759;51.982;9.232;2023-04-05T08:52:24;101115.72;;;8.51;43.60
21203;BME280;10759;51.982;9.232;2023-04-05T08:54:52;101117.34;;;8.59;43.26
21203;BME280;10759;51.982;9.232;2023-04-05T08:57:23;101116.75;;;8.39;44.79
21203;BME280;10759;51.982;9.232;2023-04-05T08:59:54;101116.94;;;8.30;46.25
21203;BME280;10759;51.982;9.232;2023-04-05T09:02:23;101103.28;;;8.50;43.44
21203;BME280;10759;51.982;9.232;2023-04-05T09:04:53;100983.25;;;7.89;42.76
21203;BME280;10759;51.982;9.232;2023-04-05T09:07:22;101106.63;;;8.61;41.96
21203;BME280;10759;51.982;9.232;2023-04-05T09:09:52;101115.19;;;8.78;41.28
21203;BME280;10759;51.982;9.232;2023-04-05T09:12:21;101113.75;;;8.60;40.67
21203;BME280;10759;51.982;9.232;2023-04-05T09:14:50;101110.69;;;8.31;42.16
21203;BME280;10759;51.982;9.232;2023-04-05T09:17:18;101097.91;;;7.95;42.06
21203;BME280;10759;51.982;9.232;2023-04-05T09:19:47;101112.06;;;8.01;41.24
21203;BME280;10759;51.982;9.232;2023-04-05T09:22:17;101106.81;;;7.94;43.49
21203;BME280;10759;51.982;9.232;2023-04-05T09:24:45;101102.94;;;8.15;43.12
21203;BME280;10759;51.982;9.232;2023-04-05T09:27:18;101081.78;;;8.03;42.42
21203;BME280;10759;51.982;9.232;2023-04-05T09:29:54;101099.72;;;7.95;41.12
21203;BME280;10759;51.982;9.232;2023-04-05T09:32:24;101102.06;;;7.55;41.64
21203;BME280;10759;51.982;9.232;2023-04-05T09:34:57;101090.16;;;7.80;40.55
21203;BME280;10759;51.982;9.232;2023-04-05T09:37:29;101094.94;;;8.14;41.08
21203;BME280;10759;51.982;9.232;2023-04-05T09:40:01;101098.69;;;8.02;41.47
21203;BME280;10759;51.982;9.232;2023-04-05T09:42:41;101080.31;;;8.40;40.54
21203;BME280;10759;51.982;9.232;2023-04-05T09:45:10;101039.72;;;7.62;41.13
21203;BME280;10759;51.982;9.232;2023-04-05T09:47:56;101043.81;;;8.37;43.86
21203;BME280;10759;51.982;9.232;2023-04-05T09:50:25;101002.25;;;8.22;43.79
21203;BME280;10759;51.982;9.232;2023-04-05T09:53:07;101044.81;;;8.79;43.39
21203;BME280;10759;51.982;9.232;2023-04-05T09:55:35;101074.34;;;9.17;42.84
21203;BME280;10759;51.982;9.232;2023-04-05T09:58:03;101074.94;;;9.31;41.27
21203;BME280;10759;51.982;9.232;2023-04-05T10:00:31;101070.34;;;9.36;43.54
21203;BME280;10759;51.982;9.232;2023-04-05T10:02:59;101055.00;;;9.04;42.34
21203;BME280;10759;51.982;9.232;2023-04-05T10:05:27;101076.19;;;9.55;40.84
21203;BME280;10759;51.982;9.232;2023-04-05T10:07:56;101070.75;;;9.58;42.76
21203;BME280;10759;51.982;9.232;2023-04-05T10:10:26;101070.59;;;9.26;41.04
21203;BME280;10759;51.982;9.232;2023-04-05T10:12:54;101065.72;;;9.02;38.57
21203;BME280;10759;51.982;9.232;2023-04-05T10:15:24;101063.72;;;9.14;41.15
21203;BME280;10759;51.982;9.232;2023-04-05T10:17:58;101061.38;;;8.97;42.79
21203;BME280;10759;51.982;9.232;2023-04-05T10:20:29;101064.66;;;9.11;39.13
21203;BME280;10759;51.982;9.232;2023-04-05T10:23:06;101058.38;;;9.14;42.39
21203;BME280;10759;51.982;9.232;2023-04-05T10:25:46;101065.25;;;9.26;40.80
21203;BME280;10759;51.982;9.232;2023-04-05T10:28:25;101063.22;;;8.95;39.78
21203;BME280;10759;51.982;9.232;2023-04-05T10:31:01;101038.53;;;7.83;40.23
21203;BME280;10759;51.982;9.232;2023-04-05T10:33:39;101048.13;;;8.47;41.58
21203;BME280;10759;51.982;9.232;2023-04-05T10:36:13;101049.00;;;8.48;40.61
21203;BME280;10759;51.982;9.232;2023-04-05T10:38:51;101038.94;;;8.62;42.89
21203;BME280;10759;51.982;9.232;2023-04-05T10:41:29;101059.22;;;9.16;40.39
21203;BME280;10759;51.982;9.232;2023-04-05T10:44:01;101050.25;;;9.18;40.82
21203;BME280;10759;51.982;9.232;2023-04-05T10:46:45;101048.78;;;9.44;39.28
21203;BME280;10759;51.982;9.232;2023-04-05T10:49:19;101040.66;;;9.49;38.45
21203;BME280;10759;51.982;9.232;2023-04-05T10:51:49;101019.91;;;9.19;38.42
21203;BME280;10759;51.982;9.232;2023-04-05T10:54:18;101007.00;;;8.98;38.03
21203;BME280;10759;51.982;9.232;2023-04-05T10:56:47;101004.22;;;9.02;41.24
21203;BME280;10759;51.982;9.232;2023-04-05T10:59:17;101036.63;;;8.89;38.72
21203;BME280;10759;51.982;9.232;2023-04-05T11:01:45;101033.44;;;9.12;40.71
21203;BME280;10759;51.982;9.232;2023-04-05T11:04:14;101035.03;;;9.59;40.71
21203;BME280;10759;51.982;9.232;2023-04-05T11:06:43;101019.00;;;9.59;39.75
21203;BME280;10759;51.982;9.232;2023-04-05T11:09:15;101029.47;;;9.68;39.03
21203;BME280;10759;51.982;9.232;2023-04-05T11:11:44;101030.81;;;9.51;38.66
21203;BME280;10759;51.982;9.232;2023-04-05T11:14:21;100970.50;;;9.36;41.94
21203;BME280;10759;51.982;9.232;2023-04-05T11:16:52;101029.09;;;9.84;38.96
21203;BME280;10759;51.982;9.232;2023-04-05T11:19:47;101024.94;;;9.72;37.85
21203;BME280;10759;51.982;9.232;2023-04-05T11:22:24;101021.44;;;9.70;38.40
21203;BME280;10759;51.982;9.232;2023-04-05T11:24:54;101027.56;;;9.74;38.73
21203;BME280;10759;51.982;9.232;2023-04-05T11:27:24;101015.81;;;9.81;39.56
21203;BME280;10759;51.982;9.232;2023-04-05T11:29:56;101018.81;;;9.67;38.24
21203;BME280;10759;51.982;9.232;2023-04-05T11:32:37;101010.63;;;9.73;39.34
21203;BME280;10759;51.982;9.232;2023-04-05T11:35:07;101009.69;;;9.76;38.03
21203;BME280;10759;51.982;9.232;2023-04-05T11:38:04;101005.41;;;9.68;37.50
21203;BME280;10759;51.982;9.232;2023-04-05T11:40:32;101001.06;;;9.26;38.60
21203;BME280;10759;51.982;9.232;2023-04-05T11:43:02;100996.13;;;9.46;38.83
21203;BME280;10759;51.982;9.232;2023-04-05T11:45:34;100984.31;;;9.55;38.66
21203;BME280;10759;51.982;9.232;2023-04-05T11:48:04;100998.97;;;9.76;38.57
21203;BME280;10759;51.982;9.232;2023-04-05T11:50:33;100996.84;;;9.90;38.98
21203;BME280;10759;51.982;9.232;2023-04-05T11:53:09;100989.06;;;9.79;40.32
21203;BME280;10759;51.982;9.232;2023-04-05T11:55:39;100972.00;;;9.83;38.79
21203;BME280;10759;51.982;9.232;2023-04-05T11:58:14;100984.53;;;9.83;40.29
21203;BME280;10759;51.982;9.232;2023-04-05T12:00:45;100989.06;;;9.42;38.37
21203;BME280;10759;51.982;9.232;2023-04-05T12:03:13;100974.91;;;8.98;38.38
21203;BME280;10759;51.982;9.232;2023-04-05T12:05:49;100979.22;;;9.05;38.98
21203;BME280;10759;51.982;9.232;2023-04-05T12:08:17;100974.38;;;9.22;38.61
21203;BME280;10759;51.982;9.232;2023-04-05T12:10:53;100948.47;;;9.24;40.23
21203;BME280;10759;51.982;9.232;2023-04-05T12:13:25;100969.94;;;9.59;37.73
21203;BME280;10759;51.982;9.232;2023-04-05T12:15:57;100975.31;;;9.59;38.43
21203;BME280;10759;51.982;9.232;2023-04-05T12:18:27;100965.28;;;9.31;38.55
21203;BME280;10759;51.982;9.232;2023-04-05T12:20:55;100952.75;;;9.32;37.46
21203;BME280;10759;51.982;9.232;2023-04-05T12:23:24;100959.63;;;9.43;38.52
21203;BME280;10759;51.982;9.232;2023-04-05T12:25:53;100958.63;;;9.83;40.95
21203;BME280;10759;51.982;9.232;2023-04-05T12:28:22;100835.50;;;9.51;40.72
21203;BME280;10759;51.982;9.232;2023-04-05T12:30:51;100954.34;;;10.43;38.23
21203;BME280;10759;51.982;9.232;2023-04-05T12:33:28;100950.13;;;10.36;38.86
21203;BME280;10759;51.982;9.232;2023-04-05T12:35:57;100956.78;;;9.87;38.19
21203;BME280;10759;51.982;9.232;2023-04-05T12:38:25;100954.34;;;9.40;37.57
21203;BME280;10759;51.982;9.232;2023-04-05T12:40:58;100949.03;;;9.39;37.08
21203;BME280;10759;51.982;9.232;2023-04-05T12:43:37;100939.00;;;9.47;37.65
21203;BME280;10759;51.982;9.232;2023-04-05T12:46:08;100893.63;;;9.44;37.44
21203;BME280;10759;51.982;9.232;2023-04-05T12:48:37;100931.22;;;9.74;36.87
21203;BME280;10759;51.982;9.232;2023-04-05T12:51:13;100933.00;;;9.75;37.72
21203;BME280;10759;51.982;9.232;2023-04-05T12:53:45;100929.19;;;9.83;37.78
21203;BME280;10759;51.982;9.232;2023-04-05T12:56:14;100921.66;;;9.98;37.23
21203;BME280;10759;51.982;9.232;2023-04-05T12:58:47;100899.75;;;9.82;40.14
21203;BME280;10759;51.982;9.232;2023-04-05T13:01:15;100901.94;;;10.02;39.03
21203;BME280;10759;51.982;9.232;2023-04-05T13:03:46;100908.91;;;10.07;38.26
21203;BME280;10759;51.982;9.232;2023-04-05T13:06:15;100903.59;;;10.06;37.54
21203;BME280;10759;51.982;9.232;2023-04-05T13:08:43;100900.69;;;10.14;39.34
21203;BME280;10759;51.982;9.232;2023-04-05T13:11:11;100898.75;;;10.19;38.94
21203;BME280;10759;51.982;9.232;2023-04-05T13:13:39;100901.25;;;9.59;37.89
21203;BME280;10759;51.982;9.232;2023-04-05T13:16:06;100901.38;;;9.55;37.71
21203;BME280;10759;51.982;9.232;2023-04-05T13:18:34;100882.22;;;10.04;36.46
21203;BME280;10759;51.982;9.232;2023-04-05T13:21:04;100902.22;;;10.24;36.45